sensor_id;sensor_type;location;lat;lon;timestamp;P1;durP1;ratioP1;P2;durP2;ratioP2
63581;SDS011;49727;51.078;17.066;2022-08-19T00:12:54;11.80;;;7.97;;
63581;SDS011;49727;51.078;17.066;2022-08-19T00:27:54;10.65;;;8.27;;
63581;SDS011;49727;51.078;17.066;2022-08-19T00:42:55;11.03;;;7.87;;
63581;SDS011;49727;51.078;17.066;2022-08-19T00:57:56;9.65;;;7.63;;
63581;SDS011;49727;51.078;17.066;2022-08-19T01:13:01;12.33;;;7.40;;
63581;SDS011;49727;51.078;17.066;2022-08-19T01:28:03;9.40;;;7.67;;
63581;SDS011;49727;51.078;17.066;2022-08-19T01:43:04;9.38;;;7.65;;
63581;SDS011;49727;51.078;17.066;2022-08-19T01:58:05;9.67;;;7.57;;
63581;SDS011;49727;51.078;17.066;2022-08-19T02:13:11;11.47;;;7.27;;
63581;SDS011;49727;51.078;17.066;2022-08-19T02:28:13;13.03;;;8.00;;
63581;SDS011;49727;51.078;17.066;2022-08-19T02:58:14;11.17;;;8.47;;
63581;SDS011;49727;51.078;17.066;2022-08-19T03:13:16;11.65;;;8.38;;
63581;SDS011;49727;51.078;17.066;2022-08-19T03:28:17;10.87;;;9.10;;
63581;SDS011;49727;51.078;17.066;2022-08-19T03:43:18;14.47;;;9.50;;
63581;SDS011;49727;51.078;17.066;2022-08-19T03:58:19;12.73;;;9.70;;
63581;SDS011;49727;51.078;17.066;2022-08-19T04:13:20;15.27;;;11.37;;
63581;SDS011;49727;51.078;17.066;2022-08-19T04:28:21;13.17;;;10.37;;
63581;SDS011;49727;51.078;17.066;2022-08-19T04:43:22;14.20;;;10.47;;
63581;SDS011;49727;51.078;17.066;2022-08-19T04:58:23;13.50;;;10.63;;
63581;SDS011;49727;51.078;17.066;2022-08-19T05:13:24;15.47;;;11.27;;
63581;SDS011;49727;51.078;17.066;2022-08-19T05:28:26;15.97;;;11.00;;
63581;SDS011;49727;51.078;17.066;2022-08-19T05:43:27;17.15;;;11.13;;
63581;SDS011;49727;51.078;17.066;2022-08-19T05:58:27;14.32;;;11.77;;
63581;SDS011;49727;51.078;17.066;2022-08-19T06:28:28;13.63;;;11.63;;
63581;SDS011;49727;51.078;17.066;2022-08-19T06:43:28;12.20;;;10.50;;
63581;SDS011;49727;51.078;17.066;2022-08-19T06:58:29;14.52;;;11.55;;
63581;SDS011;49727;51.078;17.066;2022-08-19T07:13:33;15.20;;;9.67;;
63581;SDS011;49727;51.078;17.066;2022-08-19T07:28:36;12.83;;;9.53;;
63581;SDS011;49727;51.078;17.066;2022-08-19T07:43:40;14.57;;;8.90;;
63581;SDS011;49727;51.078;17.066;2022-08-19T07:58:41;11.35;;;7.63;;
63581;SDS011;49727;51.078;17.066;2022-08-19T08:13:43;10.10;;;6.50;;
63581;SDS011;49727;51.078;17.066;2022-08-19T08:28:43;9.13;;;5.97;;
63581;SDS011;49727;51.078;17.066;2022-08-19T08:43:45;11.80;;;6.63;;
63581;SDS011;49727;51.078;17.066;2022-08-19T08:59:04;10.90;;;7.20;;
63581;SDS011;49727;51.078;17.066;2022-08-19T09:29:28;8.23;;;5.67;;
63581;SDS011;49727;51.078;17.066;2022-08-19T09:44:29;9.30;;;5.67;;
63581;SDS011;49727;51.078;17.066;2022-08-19T09:59:30;8.18;;;5.30;;
63581;SDS011;49727;51.078;17.066;2022-08-19T10:14:30;7.30;;;5.53;;
63581;SDS011;49727;51.078;17.066;2022-08-19T10:29:31;8.32;;;4.43;;
63581;SDS011;49727;51.078;17.066;2022-08-19T10:59:35;12.67;;;5.70;;
63581;SDS011;49727;51.078;17.066;2022-08-19T11:14:37;5.60;;;3.50;;
63581;SDS011;49727;51.078;17.066;2022-08-19T11:29:37;6.30;;;4.20;;
63581;SDS011;49727;51.078;17.066;2022-08-19T11:44:38;7.30;;;3.43;;
63581;SDS011;49727;51.078;17.066;2022-08-19T11:59:39;9.65;;;3.85;;
63581;SDS011;49727;51.078;17.066;2022-08-19T12:14:39;6.05;;;2.70;;
63581;SDS011;49727;51.078;17.066;2022-08-19T12:29:39;6.50;;;3.00;;
63581;SDS011;49727;51.078;17.066;2022-08-19T12:44:40;9.48;;;3.22;;
63581;SDS011;49727;51.078;17.066;2022-08-19T12:59:41;8.17;;;3.37;;
63581;SDS011;49727;51.078;17.066;2022-08-19T13:14:42;8.45;;;2.78;;
63581;SDS011;49727;51.078;17.066;2022-08-19T13:29:46;5.93;;;3.23;;
63581;SDS011;49727;51.078;17.066;2022-08-19T13:45:04;7.30;;;3.40;;
63581;SDS011;49727;51.078;17.066;2022-08-19T14:00:08;5.70;;;2.73;;
63581;SDS011;49727;51.078;17.066;2022-08-19T14:15:11;10.00;;;3.70;;
63581;SDS011;49727;51.078;17.066;2022-08-19T14:30:13;6.07;;;3.20;;
63581;SDS011;49727;51.078;17.066;2022-08-19T14:45:18;10.43;;;2.80;;
63581;SDS011;49727;51.078;17.066;2022-08-19T15:00:19;6.95;;;3.58;;
63581;SDS011;49727;51.078;17.066;2022-08-19T15:15:19;8.95;;;3.80;;
63581;SDS011;49727;51.078;17.066;2022-08-19T15:30:23;8.60;;;6.10;;
63581;SDS011;49727;51.078;17.066;2022-08-19T15:45:25;12.80;;;7.30;;
63581;SDS011;49727;51.078;17.066;2022-08-19T16:15:50;12.87;;;11.03;;
63581;SDS011;49727;51.078;17.066;2022-08-19T16:30:52;13.87;;;11.83;;
63581;SDS011;49727;51.078;17.066;2022-08-19T16:45:53;14.23;;;11.27;;
63581;SDS011;49727;51.078;17.066;2022-08-19T17:00:55;12.93;;;11.23;;
63581;SDS011;49727;51.078;17.066;2022-08-19T17:15:57;15.37;;;11.53;;
63581;SDS011;49727;51.078;17.066;2022-08-19T17:30:58;14.40;;;10.90;;
63581;SDS011;49727;51.078;17.066;2022-08-19T17:45:59;13.40;;;10.15;;
63581;SDS011;49727;51.078;17.066;2022-08-19T18:01:02;16.03;;;11.00;;
63581;SDS011;49727;51.078;17.066;2022-08-19T18:16:03;12.63;;;10.70;;
63581;SDS011;49727;51.078;17.066;2022-08-19T18:31:11;13.93;;;11.03;;
63581;SDS011;49727;51.078;17.066;2022-08-19T18:46:12;14.20;;;11.07;;
63581;SDS011;49727;51.078;17.066;2022-08-19T19:01:33;18.23;;;14.33;;
63581;SDS011;49727;51.078;17.066;2022-08-19T19:16:36;19.27;;;14.00;;
63581;SDS011;49727;51.078;17.066;2022-08-19T19:31:38;25.50;;;13.57;;
63581;SDS011;49727;51.078;17.066;2022-08-19T19:46:39;23.20;;;14.57;;
63581;SDS011;49727;51.078;17.066;2022-08-19T20:01:41;13.40;;;7.53;;
63581;SDS011;49727;51.078;17.066;2022-08-19T20:16:45;11.77;;;7.57;;
63581;SDS011;49727;51.078;17.066;2022-08-19T20:31:47;12.97;;;6.90;;
63581;SDS011;49727;51.078;17.066;2022-08-19T21:16:50;10.37;;;7.47;;
63581;SDS011;49727;51.078;17.066;2022-08-19T21:31:51;11.25;;;6.93;;
63581;SDS011;49727;51.078;17.066;2022-08-19T21:46:51;9.93;;;6.40;;
63581;SDS011;49727;51.078;17.066;2022-08-19T22:01:51;10.90;;;5.57;;
63581;SDS011;49727;51.078;17.066;2022-08-19T22:16:52;19.88;;;6.78;;
63581;SDS011;49727;51.078;17.066;2022-08-19T22:31:52;11.85;;;6.60;;
63581;SDS011;49727;51.078;17.066;2022-08-19T22:46:52;11.90;;;6.77;;
63581;SDS011;49727;51.078;17.066;2022-08-19T23:01:53;12.63;;;6.27;;
63581;SDS011;49727;51.078;17.066;2022-08-19T23:16:54;13.05;;;7.30;;
63581;SDS011;49727;51.078;17.066;2022-08-19T23:31:54;14.03;;;7.60;;
63581;SDS011;49727;51.078;17.066;2022-08-19T23:46:54;13.90;;;7.40;;
